x

9441102 - Westport, Wa (wptw1) Weather Station

9:36 - Tue 31st Mar 2015 All times are PDT. -7 hours from GMT.

  • Wind
    9mph, 13mph gusts
  • Sea Temp 55°f
  • Ar Temp 47°f
  • Sea Pressure 1023.3mb
  • 9441102 - Westport, Wa
  • 9441102 - Westport, Wa

More Historic Weather Station data

Upgrade to MSW Pro to gain access to the past 30 days of data for over 8000 Wavebouys and Weather Stations around the globe.

Join Pro

Comparision Forecast

View Surf forecast
   
Ter 03/31 9:36 9 13 mph 1023.3mb 55f 47f
9:30 10 15 mph 1023.2mb 55f 48f
9:24 11 20 mph 1023.2mb 55f 47f
9:18 23 33 mph 1023.1mb 55f 49f
9:12 18 21 mph 1023mb 55f 50f
9:06 18 22 mph 1023mb 55f 50f
9:00 17 21 mph 1022.9mb 55f 50f
8:36 18 21 mph 1022.7mb 55f 50f
8:30 18 22 mph 1022.6mb 55f 50f
8:24 16 18 mph 1022.5mb 55f 50f
8:18 16 18 mph 1022.4mb 55f 50f
8:12 16 18 mph 1022.4mb 55f 50f
8:06 18 20 mph 1022.3mb 55f 50f
8:00 15 20 mph 1022.2mb 55f 50f
7:36 15 17 mph 1022.1mb 55f 50f
7:30 15 18 mph 1022.1mb 55f 50f
7:24 15 18 mph 1022.1mb 55f 50f
7:18 14 20 mph 1022.1mb 55f 50f
7:12 15 18 mph 1022.1mb 55f 50f
7:06 15 20 mph 1022.1mb 55f 50f
7:00 16 18 mph 1022.1mb 55f 50f
6:36 16 20 mph 1022.1mb 55f 50f
6:30 16 21 mph 1022.1mb 55f 50f
6:24 15 18 mph 1022mb 55f 51f
6:18 16 21 mph 1022mb 55f 51f
6:12 17 20 mph 1022mb 55f 51f
6:06 17 21 mph 1022.1mb 55f 51f
6:00 16 21 mph 1022.1mb 55f 51f
5:36 21 23 mph 1021.9mb 55f 51f
5:30 17 22 mph 1021.8mb 55f 51f
5:24 16 21 mph 1021.8mb 55f 51f
5:18 16 20 mph 1021.7mb 55f 51f
5:12 18 21 mph 1021.7mb 55f 51f
5:06 20 22 mph 1021.6mb 55f 51f
5:00 18 23 mph 1021.6mb 55f 50f
4:36 18 22 mph 1021.7mb 55f 52f
3:36 22 26 mph 1021.7mb 55f 51f
3:30 17 24 mph 1021.7mb 55f 52f
3:24 21 24 mph 1021.6mb 55f 51f
3:18 18 22 mph 1021.6mb 55f 51f
3:12 15 21 mph 1021.6mb 55f 51f
3:06 17 22 mph 1021.5mb 55f 51f
3:00 21 22 mph 1021.5mb 55f 51f
2:36 15 18 mph 1021.3mb 55f 51f
2:30 14 20 mph 1021.2mb 54f 51f
2:24 17 21 mph 1021.2mb 54f 52f
2:18 20 22 mph 1021mb 54f 52f
2:12 20 23 mph 1021.1mb 54f 51f
2:06 17 22 mph 1021mb 54f 52f
2:00 17 22 mph 1020.9mb 54f 52f
1:36 20 22 mph 1020.8mb 54f 52f
1:30 20 22 mph 1020.8mb 54f 51f
1:24 17 21 mph 1020.8mb 54f 51f
1:18 18 21 mph 1020.7mb 54f 52f
1:12 16 20 mph 1020.7mb 54f 52f
1:06 17 20 mph 1020.6mb 54f 53f
1:00 17 18 mph 1020.6mb 54f 53f
12:36 15 16 mph 1020.4mb 54f 53f
12:30 15 17 mph 1020.3mb 54f 52f
12:24 14 17 mph 1020.3mb 54f 52f
12:18 15 17 mph 1020.3mb 54f 51f
12:12 15 17 mph 1020.3mb 54f 51f
12:06 17 20 mph 1020.2mb 54f 52f
12:00 17 21 mph 1020.2mb 54f 51f
11:36 24 29 mph 1019.9mb 54f 50f
11:30 24 28 mph 1019.9mb 54f 51f
11:24 15 18 mph 1019.8mb 54f 52f
11:18 14 15 mph 1019.7mb 54f 52f
11:12 11 14 mph 1019.6mb 54f 51f
11:06 10 13 mph 1019.6mb 54f 51f
11:00 10 14 mph 1019.6mb 54f 51f
10:36 11 13 mph 1019.3mb 54f 52f
10:30 11 14 mph 1019.2mb 54f 52f
10:24 14 15 mph 1019.1mb 54f 52f
10:18 13 14 mph 1019mb 54f 51f
10:12 13 14 mph 1018.9mb 54f 51f
10:06 14 16 mph 1018.8mb 54f 51f
10:00 13 15 mph 1018.7mb 54f 51f
9:36 15 17 mph 1018.4mb 54f 51f
9:30 14 15 mph 1018.3mb 54f 51f
9:24 14 16 mph 1018.3mb 54f 51f
9:18 14 18 mph 1018.2mb 54f 50f
9:12 16 18 mph 1018.1mb 54f 50f
9:06 17 21 mph 1017.9mb 54f 50f
9:00 18 21 mph 1017.8mb 54f 51f
8:36 17 18 mph 1017.6mb 54f 51f
8:30 15 20 mph 1017.5mb 54f 51f
8:24 17 20 mph 1017.5mb 54f 50f
8:18 17 20 mph 1017.5mb 54f 50f
8:12 20 22 mph 1017.5mb 54f 50f
8:06 21 23 mph 1017.4mb 54f 51f
8:00 15 17 mph 1017.3mb 54f 51f
7:36 17 20 mph 1017.3mb 54f 50f
7:30 16 20 mph 1017.2mb 54f 50f
7:24 20 21 mph 1017.2mb 54f 50f
7:18 17 20 mph 1017.2mb 54f 50f
7:12 20 22 mph 1017.1mb 54f 50f
7:06 18 22 mph 1017.1mb 54f 50f
7:00 20 22 mph 1017.1mb 54f 50f
6:36 21 23 mph 1016.7mb 54f 50f
6:30 21 24 mph 1016.6mb 54f 49f
6:24 15 21 mph 1016.6mb 54f 49f
6:18 14 16 mph 1016.6mb 54f 49f
6:12 16 24 mph 1016.5mb 54f 48f
6:06 20 26 mph 1016.5mb 54f 48f
6:00 13 25 mph 1016.5mb 54f 47f
5:36 8 11 mph 1016.4mb 54f 45f
5:30 8 16 mph 1016.4mb 54f 46f
5:24 22 29 mph 1016.4mb 54f 46f
5:18 14 15 mph 1016.3mb 54f 49f
5:12 14 17 mph 1016.2mb 54f 49f
5:06 16 17 mph 1016.1mb 54f 50f
5:00 15 18 mph 1016mb 54f 49f
4:36 16 21 mph 1015.9mb 54f 50f
4:30 17 20 mph 1015.8mb 54f 50f
4:24 17 20 mph 1015.7mb 54f 49f
4:18 18 21 mph 1015.6mb 54f 49f
4:12 16 18 mph 1015.6mb 54f 49f
4:06 16 20 mph 1015.6mb 54f 49f
4:00 18 20 mph 1015.5mb 54f 49f
3:36 14 18 mph 1015.4mb 54f 49f
3:30 16 20 mph 1015.4mb 54f 49f
3:24 16 20 mph 1015.3mb 54f 49f
3:18 15 20 mph 1015.2mb 54f 49f
3:12 16 18 mph 1015.2mb 54f 49f
3:06 16 20 mph 1015.1mb 54f 49f
3:00 17 20 mph 1015.1mb 54f 49f
2:36 17 20 mph 1015mb 54f 49f
2:30 16 20 mph 1014.9mb 54f 49f
2:24 16 18 mph 1014.9mb 54f 49f
2:18 18 21 mph 1014.8mb 54f 48f
2:12 17 21 mph 1014.7mb 54f 48f
2:06 17 20 mph 1014.6mb 54f 48f
2:00 18 21 mph 1014.5mb 54f 48f
1:36 22 24 mph 1014.1mb 54f 49f
1:30 23 26 mph 1014mb 54f 49f
1:24 23 25 mph 1014mb 54f 49f
1:18 24 28 mph 1013.9mb 54f 49f
1:12 22 25 mph 1014mb 54f 49f
1:06 20 25 mph 1013.9mb 54f 49f
1:00 22 25 mph 1013.9mb 54f 48f
12:36 22 26 mph 1013.5mb 54f 48f
12:30 22 25 mph 1013.5mb 54f 48f
12:24 22 25 mph 1013.5mb 54f 48f
12:18 16 20 mph 1013.4mb 54f 48f
12:12 18 22 mph 1012.9mb 54f 47f
12:06 20 22 mph 1012.9mb 54f 47f
12:00 21 24 mph 1012.8mb 54f 47f
Seg 03/30 11:36 29 31 mph 1012.5mb 54f 48f
11:30 26 30 mph 1012.3mb 54f 48f
11:24 29 32 mph 1012.3mb 54f 48f
11:18 31 36 mph 1012.2mb 54f 48f
11:12 30 33 mph 1012mb 54f 48f
11:06 29 34 mph 1011.9mb 54f 48f
11:00 29 34 mph 1011.8mb 54f 48f
10:54 31 34 mph 1011.5mb 55f 48f
10:48 30 34 mph 1011.4mb 55f 48f
10:36 31 36 mph 1011.3mb 55f 49f
10:30 14 31 mph 1011.1mb 55f 49f
10:24 13 17 mph 1011.1mb 55f 51f
10:18 15 21 mph 1011mb 54f 51f
10:12 20 26 mph 1011.1mb 54f 51f
10:06 16 24 mph 1011mb 54f 53f
10:00 20 26 mph 1010.7mb 54f 53f
9:36 14 22 mph 1011mb 55f 52f
9:30 16 28 mph 1011mb 55f 52f
9:24 14 21 mph 1011.1mb 55f 52f
9:18 15 22 mph 1011.2mb 55f 52f
9:12 15 23 mph 1011.2mb 55f 53f
9:06 17 24 mph 1011.2mb 55f 53f
9:00 20 28 mph 1011.3mb 55f 53f
8:54 17 23 mph 1011.4mb 55f 53f
8:48 15 21 mph 1011.4mb 55f 53f
8:36 16 24 mph 1011.3mb 55f 53f
8:30 16 26 mph 1011.2mb 55f 53f
8:24 17 25 mph 1011.4mb 55f 53f
8:18 17 26 mph 1011.3mb 55f 53f
8:12 14 21 mph 1011.4mb 55f 53f
8:06 14 22 mph 1011.5mb 55f 53f
8:00 14 20 mph 1011.5mb 55f 53f
7:54 15 22 mph 1011.5mb 55f 53f
7:48 16 24 mph 1011.4mb 55f 53f
7:36 13 22 mph 1011.6mb 55f 53f
7:30 11 20 mph 1012.1mb 55f 53f
7:24 15 23 mph 1012.3mb 55f 53f
7:18 13 18 mph 1012.3mb 55f 53f
7:12 11 18 mph 1012.4mb 55f 53f
7:06 14 21 mph 1012.6mb 55f 53f
7:00 15 21 mph 1012.6mb 55f 53f
6:54 13 20 mph 1012.7mb 55f 53f
6:48 14 21 mph 1012.7mb 55f 54f
6:36 15 22 mph 1012.7mb 55f 54f
6:30 13 21 mph 1012.8mb 55f 54f
6:24 14 21 mph 1012.9mb 55f 54f
6:18 13 18 mph 1012.9mb 55f 54f
6:12 11 18 mph 1013.1mb 55f 54f
6:06 11 17 mph 1013.1mb 55f 54f
6:00 14 20 mph 1013.3mb 55f 54f
5:54 17 22 mph 1013.4mb 55f 54f
5:48 14 21 mph 1013.5mb 55f 54f
5:36 16 22 mph 1013.5mb 55f 54f
5:30 15 21 mph 1013.5mb 55f 55f
5:24 16 22 mph 1013.5mb 55f 55f
5:18 13 22 mph 1013.4mb 55f 55f
5:12 14 22 mph 1013.5mb 55f 55f
5:06 15 21 mph 1013.6mb 55f 55f
5:00 13 18 mph 1013.7mb 55f 55f
4:54 13 17 mph 1013.7mb 55f 55f
4:48 14 18 mph 1013.8mb 55f 55f
4:36 14 21 mph 1013.9mb 55f 55f
4:30 16 21 mph 1013.9mb 55f 56f
4:24 14 20 mph 1013.9mb 55f 56f
4:18 13 18 mph 1013.9mb 55f 56f
4:12 8 14 mph 1013.9mb 55f 56f
4:06 9 14 mph 1014mb 55f 57f
4:00 9 14 mph 1014mb 55f 57f
3:54 10 18 mph 1014.1mb 55f 56f
3:48 10 22 mph 1014.2mb 55f 56f
3:36 14 21 mph 1014.4mb 55f 56f
3:30 17 23 mph 1014.5mb 55f 55f
3:24 14 18 mph 1014.8mb 55f 56f
3:18 11 18 mph 1014.8mb 55f 56f
3:12 11 17 mph 1015.1mb 55f 56f
3:06 14 20 mph 1015.1mb 55f 56f
3:00 14 18 mph 1015.3mb 55f 56f
2:54 10 20 mph 1015.3mb 55f 56f
2:48 10 18 mph 1015.5mb 55f 56f
2:36 14 20 mph 1015.8mb 55f 56f
2:30 10 18 mph 1015.9mb 55f 55f
2:24 10 16 mph 1015.9mb 55f 55f
2:18 11 17 mph 1016mb 55f 55f
2:12 9 16 mph 1016.1mb 55f 55f
2:06 9 17 mph 1016.3mb 55f 55f
2:00 15 20 mph 1016.4mb 55f 55f
1:54 14 18 mph 1016.5mb 55f 55f
1:48 10 16 mph 1016.5mb 55f 55f
1:36 8 15 mph 1016.7mb 54f 55f
1:30 11 16 mph 1016.9mb 54f 55f
1:24 13 18 mph 1017mb 54f 55f
1:18 13 17 mph 1017.1mb 54f 55f
1:12 11 17 mph 1017.1mb 54f 55f
1:06 8 15 mph 1017.1mb 54f 54f
1:00 10 17 mph 1017.2mb 54f 54f
12:54 11 18 mph 1017.2mb 54f 54f
12:48 14 17 mph 1017.3mb 54f 54f
12:36 14 18 mph 1017.6mb 54f 53f
12:30 10 15 mph 1017.6mb 54f 53f
12:24 9 15 mph 1017.7mb 54f 53f
12:18 11 16 mph 1017.9mb 54f 53f
12:12 10 17 mph 1018mb 54f 53f
12:06 9 17 mph 1018mb 54f 53f
12:00 10 15 mph 1018mb 54f 53f
11:54 9 16 mph 1018mb 54f 53f
11:48 9 16 mph 1018mb 54f 53f
11:36 10 14 mph 1018mb 54f 53f
11:30 9 16 mph 1018.1mb 54f 52f
11:24 9 14 mph 1018.2mb 54f 52f
11:18 8 13 mph 1018.2mb 54f 53f
11:12 9 15 mph 1018.2mb 54f 53f
11:06 9 14 mph 1018.1mb 54f 52f
11:00 8 14 mph 1018.1mb 54f 52f
10:54 10 14 mph 1018.1mb 54f 52f
10:48 9 16 mph 1018.2mb 54f 52f
10:36 7 11 mph 1018.1mb 54f 52f
10:30 9 13 mph 1018.2mb 54f 52f
10:24 9 14 mph 1018.2mb 54f 52f
10:18 8 13 mph 1018.2mb 54f 52f
10:12 9 13 mph 1018.3mb 54f 52f
10:06 8 15 mph 1018.3mb 54f 52f
10:00 9 14 mph 1018.3mb 54f 52f
9:54 9 13 mph 1018.4mb 54f 52f
9:48 9 14 mph 1018.4mb 54f 52f
9:36 11 17 mph - - -
9:30 10 15 mph - - -
9:24 10 18 mph - - -
9:18 10 18 mph - - -
9:12 9 15 mph - - -
9:06 9 15 mph - - -
9:00 9 16 mph - - -
8:54 10 17 mph - - -
8:48 11 17 mph - - -
8:36 9 15 mph - - -
8:30 9 13 mph - - -
8:24 9 15 mph 1018.9mb 54f 52f
8:18 9 13 mph 1018.8mb 54f 52f
8:12 10 15 mph 1018.8mb 54f 52f
8:06 9 14 mph 1018.8mb 54f 52f
8:00 9 14 mph 1018.7mb 54f 52f
7:54 10 14 mph 1018.7mb 54f 52f
7:48 8 11 mph 1018.8mb 54f 51f
7:36  -  mph 1018.8mb 54f 51f
7:30  -  mph 1018.8mb 54f 51f
7:24  -  mph 1018.8mb 54f 51f
7:18  -  mph 1018.8mb 54f 51f
7:12  -  mph 1018.9mb 54f 51f
7:06  -  mph 1018.9mb 54f 51f
7:00  -  mph 1018.8mb 54f 51f
6:54  -  mph 1018.9mb 54f 51f
6:48  -  mph 1019mb 54f 52f
6:36  -  mph 1019.1mb 54f 51f
6:30  -  mph 1019.1mb 54f 51f
6:24  -  mph 1019.1mb 54f 52f
6:18  -  mph 1019.1mb 54f 52f
6:12  -  mph 1019mb 54f 52f
6:06  -  mph 1019.1mb 54f 52f
6:00  -  mph 1019.1mb 54f 52f
5:54  -  mph 1019.1mb 54f 52f
5:48  -  mph 1019.2mb 54f 52f
5:36 10 14 mph 1019.3mb 54f 52f
5:30 10 14 mph 1019.3mb 54f 52f
5:24 11 16 mph 1019.3mb 54f 52f
5:18 13 18 mph 1019.4mb 54f 52f
5:12 8 15 mph 1019.3mb 54f 52f
5:06 11 16 mph 1019.3mb 54f 52f
5:00 10 14 mph 1019.4mb 54f 52f
4:54 9 14 mph 1019.5mb 54f 52f
4:48 9 14 mph 1019.5mb 54f 52f
4:36 9 14 mph 1019.6mb 54f 53f
4:30 9 14 mph 1019.5mb 54f 53f
4:24 9 14 mph 1019.6mb 54f 53f
4:18 9 14 mph 1019.6mb 54f 53f
4:12 10 14 mph 1019.6mb 54f 53f
4:06 8 15 mph 1019.6mb 54f 53f
4:00 8 15 mph 1019.7mb 54f 53f
3:54 11 15 mph 1019.7mb 54f 53f
3:48 9 16 mph 1019.7mb 54f 53f
3:36 11 16 mph 1019.9mb 54f 53f
3:30 10 16 mph 1020mb 54f 53f
3:24 11 16 mph 1020mb 54f 53f
3:18 11 16 mph 1020.1mb 54f 53f
3:12 13 17 mph 1020.2mb 54f 53f
3:06 10 14 mph 1020.1mb 54f 53f
3:00 10 15 mph 1020.1mb 54f 53f
2:54 9 13 mph 1020.1mb 54f 53f
2:48 8 13 mph 1020mb 54f 53f
2:36 10 14 mph 1020mb 54f 53f
2:30 10 15 mph 1020.1mb 54f 53f
2:24 11 14 mph 1020.2mb 54f 53f
2:18 10 16 mph 1020.2mb 54f 53f
2:12 8 15 mph 1020.2mb 54f 53f
2:06 9 14 mph 1020.3mb 54f 53f
2:00 9 13 mph 1020.2mb 54f 53f
1:54 10 15 mph 1020.2mb 54f 53f
1:48 11 17 mph 1020.2mb 54f 53f
1:36  -  mph 1020.4mb 54f 53f
1:30  -  mph 1020.4mb 54f 53f
1:24  -  mph 1020.5mb 54f 53f
1:18  -  mph 1020.5mb 54f 53f
1:12  -  mph 1020.5mb 54f 53f
1:06  -  mph 1020.4mb 54f 53f
1:00  -  mph 1020.3mb 54f 53f
12:54  -  mph 1020.4mb 54f 53f
12:48  -  mph 1020.5mb 54f 53f
12:36 10 15 mph 1020.5mb 54f 53f
12:30 10 14 mph 1020.6mb 54f 53f
12:24 9 15 mph 1020.6mb 54f 53f
12:18 10 15 mph - - -
12:12 9 15 mph - - -
12:06 9 14 mph - - -
12:00 10 14 mph - - -
Dom 03/29 11:54 8 14 mph - - -
11:48 10 14 mph 1020.9mb 54f 53f
11:36  -  mph 1021mb 54f 53f
11:30  -  mph 1021mb 54f 53f
11:24  -  mph 1021.1mb 54f 53f
11:18  -  mph 1021.1mb 54f 53f
11:12  -  mph 1021.1mb 54f 53f
11:06  -  mph 1021.2mb 54f 53f
11:00  -  mph 1021.3mb 54f 53f
10:54  -  mph 1021.3mb 54f 53f
10:48  -  mph 1021.3mb 54f 53f
10:36 10 14 mph 1021.3mb 54f 53f
10:30 9 14 mph 1021.3mb 54f 53f
10:24 8 15 mph 1021.3mb 54f 53f
10:18 9 14 mph 1021.3mb 54f 53f
10:12 9 14 mph 1021.4mb 54f 53f
10:06 9 14 mph 1021.3mb 54f 53f
10:00 9 13 mph 1021.3mb 54f 54f
9:54 9 14 mph 1021.4mb 54f 54f
9:48 9 15 mph 1021.4mb 54f 54f
9:36 11 15 mph 1021.4mb 54f 53f
9:30 9 17 mph 1021.4mb 54f 53f
9:24 10 15 mph 1021.5mb 54f 53f
9:18 13 17 mph 1021.4mb 54f 53f
9:12 9 17 mph 1021.5mb 54f 53f
9:06 11 16 mph 1021.5mb 54f 53f
9:00 14 18 mph 1021.5mb 55f 53f
8:54 13 17 mph 1021.5mb 55f 53f
8:48 13 17 mph 1021.5mb 55f 53f
8:36 13 17 mph 1021.4mb 55f 53f
8:30 11 16 mph 1021.5mb 55f 53f
8:24 9 16 mph 1021.5mb 55f 53f
8:18 11 17 mph 1021.6mb 55f 53f
8:12 13 18 mph 1021.6mb 55f 53f
8:06 14 17 mph 1021.6mb 55f 53f
8:00 14 20 mph 1021.5mb 55f 53f
7:54 13 17 mph 1021.5mb 55f 53f
7:48 13 17 mph 1021.4mb 55f 53f
7:36 11 16 mph 1021.4mb 55f 53f
7:30 11 17 mph 1021.6mb 55f 53f
7:24 9 14 mph 1021.6mb 55f 53f
7:18 13 16 mph 1021.6mb 55f 53f
7:12 11 18 mph 1021.6mb 55f 53f
7:06 13 18 mph 1021.6mb 55f 53f
7:00 14 20 mph 1021.6mb 55f 53f
6:54 11 18 mph 1021.7mb 55f 53f
6:48 14 18 mph 1021.7mb 55f 53f
6:36 15 21 mph 1021.8mb 55f 53f
6:30 13 18 mph 1021.9mb 55f 53f
6:24 11 20 mph 1021.9mb 55f 53f
6:18 14 22 mph 1021.9mb 55f 53f
6:12 14 20 mph 1022mb 55f 53f
6:06 13 20 mph 1022.2mb 54f 53f
6:00 15 20 mph 1022.3mb 54f 53f
5:54 14 20 mph 1022.2mb 54f 53f
5:48 13 21 mph 1022.2mb 54f 53f
5:36 16 21 mph 1022.3mb 54f 53f
5:30 14 21 mph 1022.3mb 54f 53f
5:24 13 21 mph 1022.3mb 54f 53f
5:18 14 18 mph 1022.3mb 54f 53f
5:12 13 20 mph 1022.3mb 54f 53f
5:06 14 22 mph 1022.4mb 54f 53f
5:00 14 20 mph 1022.5mb 54f 53f
4:54 14 22 mph 1022.6mb 54f 53f
4:48 14 22 mph 1022.6mb 54f 53f
4:36  -  mph 1022.7mb 54f 53f
4:30  -  mph 1022.7mb 54f 53f
4:24  -  mph 1022.8mb 54f 53f
4:18  -  mph 1022.9mb 54f 53f
4:12  -  mph 1022.9mb 54f 53f
4:06  -  mph 1022.9mb 54f 53f
4:00  -  mph 1022.9mb 54f 53f
3:54  -  mph 1022.8mb 54f 53f
3:48  -  mph 1022.9mb 54f 53f
3:36 15 23 mph 1023.1mb 54f 53f
3:30 15 22 mph 1023.1mb 54f 53f
3:24 15 23 mph 1023.1mb 54f 53f
3:18 14 21 mph 1023.1mb 54f 53f
3:12 17 24 mph 1023.1mb 54f 53f
3:06 15 23 mph 1023.1mb 54f 53f
3:00 16 22 mph 1023.1mb 54f 53f
2:54 15 24 mph 1023.2mb 54f 53f
2:48 14 24 mph 1023.2mb 54f 53f
2:36 14 23 mph 1023.3mb 54f 53f
2:30 17 26 mph 1023.3mb 54f 53f
2:24 16 23 mph 1023.4mb 54f 53f
2:18 16 24 mph 1023.4mb 54f 53f
2:12 16 25 mph 1023.5mb 54f 53f
2:06 16 26 mph 1023.6mb 54f 53f
2:00 15 21 mph 1023.7mb 54f 53f
1:54 20 29 mph 1023.7mb 54f 53f
1:48 15 25 mph 1023.7mb 54f 53f
1:36 16 29 mph 1023.7mb 54f 54f
1:30 18 24 mph 1023.6mb 54f 54f
1:24 20 28 mph 1023.6mb 54f 53f
1:18 18 25 mph 1023.7mb 54f 54f
1:12 18 29 mph 1023.7mb 54f 54f
1:06 18 25 mph 1023.6mb 54f 53f
1:00 20 28 mph 1023.7mb 54f 53f
12:54 18 28 mph 1023.8mb 54f 53f
12:48 17 24 mph 1023.7mb 54f 53f
12:36 16 28 mph 1023.8mb 54f 53f
12:30 16 24 mph 1023.8mb 54f 53f
12:24 16 22 mph 1023.8mb 54f 53f
12:18 16 22 mph 1023.8mb 54f 53f
12:12 15 25 mph 1023.9mb 54f 53f
12:06 18 24 mph 1023.9mb 54f 53f
12:00 18 25 mph 1024mb 54f 53f
11:54 17 25 mph 1024mb 54f 53f
11:48 17 26 mph 1024mb 54f 53f
11:36 16 29 mph 1024.1mb 54f 53f
11:30 15 24 mph 1024.2mb 54f 53f
11:24 17 28 mph 1024.1mb 54f 53f
11:18 16 25 mph 1024.2mb 54f 53f
11:12 18 25 mph 1024.3mb 54f 53f
11:06 17 25 mph 1024.3mb 54f 53f
11:00 17 25 mph 1024.3mb 54f 53f
10:54 16 22 mph 1024.3mb 54f 53f
10:48 17 21 mph 1024.3mb 54f 53f
10:36 17 23 mph 1024.3mb 54f 53f
10:30 15 25 mph 1024.3mb 54f 53f
10:24 15 24 mph 1024.3mb 54f 53f
10:18 17 25 mph 1024.2mb 54f 53f
10:12 17 25 mph 1024.2mb 54f 53f
10:06 16 22 mph 1024.1mb 54f 52f
10:00 17 24 mph 1024.1mb 54f 53f
9:54 18 24 mph 1024.1mb 54f 53f
9:48 16 24 mph 1024mb 54f 52f
9:36 15 23 mph 1024.1mb 54f 52f
9:30 14 22 mph 1024.1mb 54f 52f
9:24 15 21 mph 1024.1mb 54f 52f
9:18 13 22 mph 1024.1mb 54f 52f
9:12 14 24 mph 1024.1mb 54f 52f
9:06 15 22 mph 1024.1mb 54f 52f
9:00 14 24 mph 1024.1mb 54f 52f
8:54 16 21 mph 1024.2mb 54f 52f
8:48 14 20 mph 1024.2mb 54f 52f
8:36 15 20 mph 1024.2mb 54f 52f
8:30 11 20 mph 1024.1mb 54f 52f
8:24 11 16 mph 1024.1mb 54f 52f
8:18 13 16 mph 1024.2mb 54f 52f
8:12 10 15 mph 1024.2mb 54f 52f
8:06 11 16 mph 1024.1mb 54f 52f
8:00 11 18 mph 1024.3mb 54f 52f
7:54 9 14 mph 1024.2mb 54f 52f
7:48 11 17 mph 1024.4mb 54f 51f
7:36  -  mph 1024.5mb 54f 51f
7:30  -  mph 1024.4mb 54f 51f
7:24  -  mph 1024.4mb 54f 51f
7:18  -  mph 1024.4mb 54f 51f
7:12  -  mph 1024.5mb 54f 51f
7:06  -  mph 1024.5mb 54f 51f
7:00  -  mph 1024.5mb 54f 51f
6:54  -  mph 1024.5mb 54f 51f
6:48  -  mph 1024.5mb 54f 51f
6:36 10 15 mph 1024.4mb 54f 51f
6:30 10 15 mph 1024.4mb 54f 51f
6:24 10 14 mph 1024.4mb 54f 51f
6:18 10 14 mph 1024.5mb 54f 51f
6:12 9 13 mph 1024.5mb 54f 51f
6:06 9 14 mph 1024.4mb 54f 51f
6:00 10 15 mph 1024.4mb 54f 51f
5:54 9 14 mph 1024.5mb 54f 51f
5:48 9 14 mph 1024.5mb 54f 51f
5:36 8 15 mph 1024.4mb 54f 51f
5:30 9 14 mph 1024.6mb 54f 51f
5:24 8 11 mph 1024.6mb 54f 51f
5:18 8 13 mph 1024.7mb 54f 51f
5:12 8 14 mph 1024.7mb 54f 51f
5:06 9 14 mph 1024.8mb 54f 51f
5:00 7 9 mph 1024.8mb 54f 51f
4:54 9 11 mph 1024.8mb 54f 51f
4:48 9 13 mph 1024.7mb 54f 51f
Sáb 03/28 10:36  -  mph 1027.1mb 54f 51f
10:30  -  mph 1027.1mb 54f 52f
10:24  -  mph 1027.2mb 54f 52f
10:18  -  mph 1027.3mb 54f 52f
10:12  -  mph 1027.3mb 54f 52f
10:06  -  mph 1027.2mb 54f 52f
10:00  -  mph 1027.2mb 54f 52f
9:54  -  mph 1027.2mb 54f 52f
9:48  -  mph 1027.2mb 54f 52f
9:36 9 14 mph 1027.3mb 54f 52f
9:30 10 15 mph 1027.2mb 54f 52f
9:24 9 14 mph 1027.1mb 54f 52f
9:18 7 11 mph 1027.1mb 54f 52f
9:12 9 13 mph 1027.1mb 54f 52f
9:06 8 13 mph 1027mb 54f 52f
9:00 10 16 mph 1027mb 54f 52f
8:54 13 17 mph 1027mb 54f 53f
8:48 9 15 mph 1026.9mb 54f 53f
8:36 11 16 mph 1026.9mb 54f 53f
8:30 10 16 mph 1026.9mb 54f 53f
8:24 9 15 mph 1026.9mb 54f 53f
8:18 10 15 mph 1027mb 54f 53f
8:12 9 15 mph 1027mb 54f 53f
8:06 11 16 mph 1026.9mb 54f 53f
8:00 11 16 mph 1026.9mb 54f 53f
7:54 13 16 mph 1026.9mb 54f 53f
7:48 10 16 mph 1026.9mb 54f 53f
7:36 13 16 mph 1027mb 55f 53f
7:30 14 20 mph 1026.9mb 55f 53f
7:24 11 17 mph 1026.9mb 54f 53f
7:18 10 16 mph 1027mb 54f 53f
7:12 11 16 mph 1027.1mb 55f 53f
7:06 11 17 mph 1027.2mb 55f 53f
7:00 13 16 mph 1027.2mb 55f 53f
6:54 14 18 mph 1027.3mb 55f 53f
6:48 14 17 mph 1027.4mb 55f 53f
6:36 13 17 mph 1027.5mb 55f 53f
6:30 13 17 mph 1027.4mb 55f 53f
6:24 13 17 mph 1027.4mb 55f 53f
6:18 14 21 mph 1027.4mb 55f 53f
6:12 15 20 mph 1027.4mb 55f 54f
6:06 14 18 mph 1027.5mb 54f 54f
6:00 14 18 mph 1027.6mb 54f 54f
5:54 15 20 mph 1027.6mb 54f 54f
5:48 14 18 mph 1027.6mb 54f 54f
5:36 15 18 mph 1027.5mb 54f 54f
5:30 14 21 mph 1027.5mb 54f 54f
5:24 15 20 mph 1027.5mb 54f 54f
5:18 13 17 mph 1027.7mb 54f 54f
5:12 15 20 mph 1027.6mb 54f 54f
5:06 14 20 mph 1027.8mb 54f 54f
5:00 16 20 mph 1027.7mb 54f 54f
4:54 14 18 mph 1027.9mb 54f 54f
4:48 14 18 mph 1028mb 54f 54f
4:36 16 20 mph 1028mb 54f 54f
4:30 15 18 mph 1028mb 54f 54f
4:24 14 20 mph 1028mb 54f 55f
4:18 11 17 mph 1027.9mb 54f 55f
4:12 14 17 mph 1027.9mb 54f 55f
4:06 14 18 mph 1027.9mb 54f 55f
4:00 13 17 mph 1027.8mb 54f 55f
3:54 14 18 mph 1027.9mb 54f 55f
3:48 14 17 mph 1028mb 54f 55f
3:36 16 20 mph 1028mb 54f 55f
3:30 16 21 mph 1028.1mb 54f 55f
3:24 14 20 mph 1028mb 54f 55f
3:18 15 20 mph 1028mb 54f 56f
3:12 15 21 mph 1028.1mb 54f 55f
3:06 14 18 mph 1028.1mb 54f 55f
3:00 14 18 mph 1028.2mb 54f 55f
2:54 13 20 mph 1028.3mb 54f 56f
2:48 16 20 mph 1028.4mb 54f 55f
2:36 15 21 mph 1028.3mb 54f 55f
2:30 15 20 mph 1028.3mb 54f 55f
2:24 13 18 mph 1028.3mb 54f 55f
2:18 13 17 mph 1028.4mb 54f 55f
2:12 13 17 mph 1028.4mb 54f 55f
2:06 9 14 mph 1028.4mb 54f 54f
2:00 9 16 mph 1028.5mb 54f 54f
1:54 14 17 mph 1028.5mb 54f 54f
1:48 14 16 mph 1028.5mb 54f 55f
1:36 11 18 mph 1028.4mb 54f 54f
1:30 16 20 mph 1028.4mb 54f 54f
1:24 13 17 mph 1028.4mb 54f 54f
1:18 14 17 mph 1028.3mb 54f 54f
1:12 13 16 mph 1028.3mb 54f 55f
1:06 13 17 mph 1028.2mb 54f 55f
1:00 13 16 mph 1028mb 54f 56f
12:54 14 17 mph 1027.9mb 54f 55f
12:48 11 16 mph 1027.8mb 54f 55f
12:36 11 15 mph 1027.3mb 54f 55f
12:30 9 13 mph 1027.4mb 54f 55f
12:24 11 16 mph 1027.4mb 54f 55f
12:18 10 13 mph 1027.3mb 54f 55f
12:12 10 13 mph 1027.3mb 54f 55f
12:06 6 11 mph 1027.2mb 54f 54f
12:00 9 11 mph 1027.2mb 54f 54f
11:54 7 10 mph 1027.5mb 54f 54f
11:48 9 10 mph 1027.5mb 54f 54f
11:36 8 10 mph 1027.7mb 54f 55f
11:30 10 13 mph 1027.9mb 54f 54f
11:24 9 11 mph 1027.9mb 54f 55f
11:18 9 11 mph 1027.8mb 54f 55f
11:12 8 11 mph 1027.7mb 54f 54f
11:06 8 11 mph 1027.7mb 54f 54f
11:00 8 10 mph 1027.7mb 54f 53f
10:54 9 11 mph 1027.7mb 54f 54f
10:48 10 11 mph 1027.6mb 54f 54f
10:36 8 11 mph 1027.5mb 54f 54f
10:30 8 10 mph 1027.5mb 54f 53f
10:24 8 10 mph 1027.4mb 54f 53f
10:18 7 11 mph 1027.4mb 54f 54f
10:12 9 11 mph 1027.3mb 54f 54f
10:06 9 11 mph 1027.3mb 54f 53f
10:00 10 13 mph 1027.2mb 54f 53f
9:54 9 11 mph 1027.1mb 54f 53f
9:48 8 10 mph 1027.1mb 54f 53f
9:36 11 13 mph 1026.9mb 54f 53f
9:30 10 11 mph 1026.8mb 54f 53f
9:24 11 14 mph 1026.6mb 54f 53f
9:18 11 14 mph 1026.6mb 54f 52f
9:12 11 14 mph 1026.5mb 54f 52f
9:06 13 14 mph 1026.4mb 54f 52f
9:00 13 17 mph 1026.4mb 54f 52f
8:54 14 15 mph 1026.5mb 54f 52f
8:48 11 16 mph 1026.5mb 54f 52f
8:36 11 15 mph 1026.4mb 54f 52f
8:30 13 15 mph 1026.4mb 54f 52f
8:24 13 17 mph 1026.3mb 54f 52f
8:18 15 18 mph 1026.3mb 54f 52f
8:12 15 17 mph 1026.3mb 54f 52f
8:06 15 17 mph 1026.3mb 54f 52f
8:00 14 17 mph 1026.1mb 54f 52f
7:54 15 17 mph 1026mb 54f 52f
7:48 14 17 mph 1025.8mb 54f 52f
7:36  -  mph 1025.5mb 54f 51f
7:30  -  mph 1025.5mb 54f 51f
7:24  -  mph 1025.4mb 54f 51f
7:18  -  mph 1024.9mb 54f 51f
7:12  -  mph 1024.8mb 54f 51f
7:06  -  mph 1024.6mb 54f 51f
7:00  -  mph 1024.7mb 54f 51f
6:54  -  mph 1024.7mb 54f 51f
6:48  -  mph 1024.4mb 54f 51f
6:36 18 21 mph 1024.3mb 54f 51f
6:30 20 23 mph 1024.1mb 54f 51f
6:24 18 22 mph 1024mb 54f 51f
6:18 18 22 mph 1024mb 54f 51f
6:12 21 23 mph 1023.8mb 54f 51f